sensor_id;sensor_type;location;lat;lon;timestamp;P1;durP1;ratioP1;P2;durP2;ratioP2
69951;SDS011;60406;48.408;13.392;2022-08-19T00:00:22;20.73;;;18.55;;
69951;SDS011;60406;48.408;13.392;2022-08-19T00:05:23;21.30;;;19.10;;
69951;SDS011;60406;48.408;13.392;2022-08-19T00:10:24;21.33;;;19.33;;
69951;SDS011;60406;48.408;13.392;2022-08-19T00:15:25;22.55;;;20.38;;
69951;SDS011;60406;48.408;13.392;2022-08-19T00:20:26;22.75;;;20.50;;
69951;SDS011;60406;48.408;13.392;2022-08-19T00:25:26;23.23;;;20.73;;
69951;SDS011;60406;48.408;13.392;2022-08-19T00:30:27;21.10;;;19.02;;
69951;SDS011;60406;48.408;13.392;2022-08-19T00:35:28;20.15;;;18.30;;
69951;SDS011;60406;48.408;13.392;2022-08-19T00:40:29;21.15;;;19.25;;
69951;SDS011;60406;48.408;13.392;2022-08-19T00:45:30;20.52;;;18.63;;
69951;SDS011;60406;48.408;13.392;2022-08-19T00:50:31;22.00;;;19.80;;
69951;SDS011;60406;48.408;13.392;2022-08-19T00:55:32;21.25;;;19.20;;
69951;SDS011;60406;48.408;13.392;2022-08-19T01:00:34;20.85;;;18.73;;
69951;SDS011;60406;48.408;13.392;2022-08-19T01:05:34;22.77;;;20.48;;
69951;SDS011;60406;48.408;13.392;2022-08-19T01:10:37;22.38;;;20.15;;
69951;SDS011;60406;48.408;13.392;2022-08-19T01:15:42;22.90;;;20.55;;
69951;SDS011;60406;48.408;13.392;2022-08-19T01:20:46;26.80;;;19.02;;
69951;SDS011;60406;48.408;13.392;2022-08-19T01:25:48;21.75;;;19.75;;
69951;SDS011;60406;48.408;13.392;2022-08-19T01:30:52;20.70;;;18.63;;
69951;SDS011;60406;48.408;13.392;2022-08-19T01:35:54;21.25;;;19.20;;
69951;SDS011;60406;48.408;13.392;2022-08-19T01:41:04;21.15;;;19.13;;
69951;SDS011;60406;48.408;13.392;2022-08-19T01:46:05;21.48;;;19.27;;
69951;SDS011;60406;48.408;13.392;2022-08-19T01:51:07;21.60;;;18.05;;
69951;SDS011;60406;48.408;13.392;2022-08-19T01:56:09;20.33;;;18.42;;
69951;SDS011;60406;48.408;13.392;2022-08-19T02:01:10;22.83;;;20.35;;
69951;SDS011;60406;48.408;13.392;2022-08-19T02:06:11;24.67;;;19.77;;
69951;SDS011;60406;48.408;13.392;2022-08-19T02:11:18;22.65;;;20.25;;
69951;SDS011;60406;48.408;13.392;2022-08-19T02:16:20;22.35;;;19.45;;
69951;SDS011;60406;48.408;13.392;2022-08-19T02:21:22;20.63;;;18.65;;
69951;SDS011;60406;48.408;13.392;2022-08-19T02:26:24;20.92;;;18.83;;
69951;SDS011;60406;48.408;13.392;2022-08-19T02:31:25;20.23;;;18.33;;
69951;SDS011;60406;48.408;13.392;2022-08-19T02:36:26;20.58;;;17.98;;
69951;SDS011;60406;48.408;13.392;2022-08-19T02:41:28;19.13;;;17.25;;
69951;SDS011;60406;48.408;13.392;2022-08-19T02:46:32;21.13;;;16.77;;
69951;SDS011;60406;48.408;13.392;2022-08-19T02:51:38;17.38;;;15.70;;
69951;SDS011;60406;48.408;13.392;2022-08-19T02:56:40;19.10;;;16.50;;
69951;SDS011;60406;48.408;13.392;2022-08-19T03:01:42;17.65;;;15.85;;
69951;SDS011;60406;48.408;13.392;2022-08-19T03:06:44;18.90;;;15.88;;
69951;SDS011;60406;48.408;13.392;2022-08-19T03:11:46;18.73;;;16.33;;
69951;SDS011;60406;48.408;13.392;2022-08-19T03:16:48;21.60;;;17.35;;
69951;SDS011;60406;48.408;13.392;2022-08-19T03:21:50;19.20;;;17.03;;
69951;SDS011;60406;48.408;13.392;2022-08-19T03:26:52;19.92;;;17.83;;
69951;SDS011;60406;48.408;13.392;2022-08-19T03:31:54;19.17;;;17.20;;
69951;SDS011;60406;48.408;13.392;2022-08-19T03:36:56;18.80;;;16.98;;
69951;SDS011;60406;48.408;13.392;2022-08-19T03:41:58;18.63;;;16.80;;
69951;SDS011;60406;48.408;13.392;2022-08-19T03:46:59;19.38;;;17.40;;
69951;SDS011;60406;48.408;13.392;2022-08-19T03:52:00;18.85;;;17.02;;
69951;SDS011;60406;48.408;13.392;2022-08-19T03:57:02;17.30;;;15.48;;
69951;SDS011;60406;48.408;13.392;2022-08-19T04:02:06;19.35;;;17.33;;
69951;SDS011;60406;48.408;13.392;2022-08-19T04:07:10;18.63;;;16.73;;
69951;SDS011;60406;48.408;13.392;2022-08-19T04:12:12;18.80;;;16.85;;
69951;SDS011;60406;48.408;13.392;2022-08-19T04:17:13;18.30;;;16.40;;
69951;SDS011;60406;48.408;13.392;2022-08-19T04:22:14;18.80;;;16.80;;
69951;SDS011;60406;48.408;13.392;2022-08-19T04:27:14;17.67;;;15.70;;
69951;SDS011;60406;48.408;13.392;2022-08-19T04:32:15;19.90;;;16.75;;
69951;SDS011;60406;48.408;13.392;2022-08-19T04:37:16;18.80;;;16.85;;
69951;SDS011;60406;48.408;13.392;2022-08-19T04:42:17;19.20;;;17.25;;
69951;SDS011;60406;48.408;13.392;2022-08-19T04:47:18;25.13;;;19.73;;
69951;SDS011;60406;48.408;13.392;2022-08-19T04:52:19;20.42;;;18.30;;
69951;SDS011;60406;48.408;13.392;2022-08-19T04:57:20;20.33;;;18.17;;
69951;SDS011;60406;48.408;13.392;2022-08-19T05:02:21;19.67;;;17.67;;
69951;SDS011;60406;48.408;13.392;2022-08-19T05:07:22;20.10;;;18.10;;
69951;SDS011;60406;48.408;13.392;2022-08-19T05:12:23;21.48;;;17.27;;
69951;SDS011;60406;48.408;13.392;2022-08-19T05:17:25;18.45;;;16.73;;
69951;SDS011;60406;48.408;13.392;2022-08-19T05:22:26;18.95;;;16.95;;
69951;SDS011;60406;48.408;13.392;2022-08-19T05:27:27;19.17;;;17.13;;
69951;SDS011;60406;48.408;13.392;2022-08-19T05:32:28;16.95;;;15.35;;
69951;SDS011;60406;48.408;13.392;2022-08-19T05:37:28;18.15;;;16.45;;
69951;SDS011;60406;48.408;13.392;2022-08-19T05:42:29;18.02;;;16.15;;
69951;SDS011;60406;48.408;13.392;2022-08-19T05:47:30;18.60;;;16.77;;
69951;SDS011;60406;48.408;13.392;2022-08-19T05:52:31;19.33;;;17.15;;
69951;SDS011;60406;48.408;13.392;2022-08-19T05:57:32;18.75;;;16.85;;
69951;SDS011;60406;48.408;13.392;2022-08-19T06:02:33;19.40;;;17.48;;
69951;SDS011;60406;48.408;13.392;2022-08-19T06:07:38;19.52;;;17.48;;
69951;SDS011;60406;48.408;13.392;2022-08-19T06:12:39;17.88;;;16.08;;
69951;SDS011;60406;48.408;13.392;2022-08-19T06:17:40;18.75;;;16.90;;
69951;SDS011;60406;48.408;13.392;2022-08-19T06:22:43;19.20;;;17.35;;
69951;SDS011;60406;48.408;13.392;2022-08-19T06:27:44;16.83;;;15.23;;
69951;SDS011;60406;48.408;13.392;2022-08-19T06:32:46;19.50;;;17.60;;
69951;SDS011;60406;48.408;13.392;2022-08-19T06:37:46;18.48;;;16.80;;
69951;SDS011;60406;48.408;13.392;2022-08-19T06:42:47;17.50;;;15.95;;
69951;SDS011;60406;48.408;13.392;2022-08-19T06:47:48;16.13;;;14.63;;
69951;SDS011;60406;48.408;13.392;2022-08-19T06:52:49;16.92;;;15.43;;
69951;SDS011;60406;48.408;13.392;2022-08-19T06:57:50;16.42;;;14.98;;
69951;SDS011;60406;48.408;13.392;2022-08-19T07:02:51;16.17;;;14.70;;
69951;SDS011;60406;48.408;13.392;2022-08-19T07:07:52;20.55;;;16.92;;
69951;SDS011;60406;48.408;13.392;2022-08-19T07:12:52;19.20;;;17.33;;
69951;SDS011;60406;48.408;13.392;2022-08-19T07:17:53;19.60;;;17.70;;
69951;SDS011;60406;48.408;13.392;2022-08-19T07:22:54;19.80;;;17.70;;
69951;SDS011;60406;48.408;13.392;2022-08-19T07:27:55;20.05;;;18.08;;
69951;SDS011;60406;48.408;13.392;2022-08-19T07:32:56;24.13;;;18.75;;
69951;SDS011;60406;48.408;13.392;2022-08-19T07:37:57;18.42;;;16.63;;
69951;SDS011;60406;48.408;13.392;2022-08-19T07:42:58;19.73;;;17.70;;
69951;SDS011;60406;48.408;13.392;2022-08-19T07:47:59;17.20;;;15.30;;
69951;SDS011;60406;48.408;13.392;2022-08-19T07:53:00;19.48;;;17.48;;
69951;SDS011;60406;48.408;13.392;2022-08-19T07:58:01;17.58;;;15.77;;
69951;SDS011;60406;48.408;13.392;2022-08-19T08:03:02;16.65;;;14.93;;
69951;SDS011;60406;48.408;13.392;2022-08-19T08:08:03;16.83;;;15.00;;
69951;SDS011;60406;48.408;13.392;2022-08-19T08:13:04;20.52;;;16.38;;
69951;SDS011;60406;48.408;13.392;2022-08-19T08:18:04;20.20;;;18.02;;
69951;SDS011;60406;48.408;13.392;2022-08-19T08:23:05;20.33;;;18.35;;
69951;SDS011;60406;48.408;13.392;2022-08-19T08:28:06;20.20;;;18.20;;
69951;SDS011;60406;48.408;13.392;2022-08-19T08:33:07;21.95;;;19.60;;
69951;SDS011;60406;48.408;13.392;2022-08-19T08:38:08;19.40;;;17.33;;
69951;SDS011;60406;48.408;13.392;2022-08-19T08:43:28;19.88;;;17.92;;
69951;SDS011;60406;48.408;13.392;2022-08-19T08:53:39;20.20;;;18.30;;
69951;SDS011;60406;48.408;13.392;2022-08-19T09:04:15;21.35;;;19.40;;
69951;SDS011;60406;48.408;13.392;2022-08-19T09:09:18;20.65;;;18.35;;
69951;SDS011;60406;48.408;13.392;2022-08-19T09:19:52;21.85;;;19.65;;
69951;SDS011;60406;48.408;13.392;2022-08-19T09:25:02;22.15;;;20.05;;
69951;SDS011;60406;48.408;13.392;2022-08-19T09:30:05;19.80;;;17.77;;
69951;SDS011;60406;48.408;13.392;2022-08-19T09:35:07;19.05;;;17.27;;
69951;SDS011;60406;48.408;13.392;2022-08-19T09:40:08;18.35;;;16.63;;
69951;SDS011;60406;48.408;13.392;2022-08-19T09:45:10;19.60;;;17.57;;
69951;SDS011;60406;48.408;13.392;2022-08-19T09:50:11;17.95;;;16.20;;
69951;SDS011;60406;48.408;13.392;2022-08-19T09:55:12;17.27;;;15.75;;
69951;SDS011;60406;48.408;13.392;2022-08-19T10:00:13;18.42;;;16.65;;
69951;SDS011;60406;48.408;13.392;2022-08-19T10:05:14;18.20;;;16.40;;
69951;SDS011;60406;48.408;13.392;2022-08-19T10:10:15;17.83;;;16.10;;
69951;SDS011;60406;48.408;13.392;2022-08-19T10:15:16;15.00;;;13.70;;
69951;SDS011;60406;48.408;13.392;2022-08-19T10:20:17;17.05;;;15.48;;
69951;SDS011;60406;48.408;13.392;2022-08-19T10:25:18;16.27;;;14.77;;
69951;SDS011;60406;48.408;13.392;2022-08-19T10:30:20;16.48;;;14.88;;
69951;SDS011;60406;48.408;13.392;2022-08-19T10:35:21;16.15;;;14.68;;
69951;SDS011;60406;48.408;13.392;2022-08-19T10:40:22;16.90;;;15.35;;
69951;SDS011;60406;48.408;13.392;2022-08-19T10:45:23;17.73;;;16.13;;
69951;SDS011;60406;48.408;13.392;2022-08-19T10:50:24;15.13;;;13.32;;
69951;SDS011;60406;48.408;13.392;2022-08-19T10:55:25;15.63;;;14.20;;
69951;SDS011;60406;48.408;13.392;2022-08-19T11:00:26;16.15;;;14.68;;
69951;SDS011;60406;48.408;13.392;2022-08-19T11:05:27;14.93;;;13.27;;
69951;SDS011;60406;48.408;13.392;2022-08-19T11:10:28;14.98;;;13.68;;
69951;SDS011;60406;48.408;13.392;2022-08-19T11:15:29;13.43;;;11.60;;
69951;SDS011;60406;48.408;13.392;2022-08-19T11:20:29;13.32;;;12.02;;
69951;SDS011;60406;48.408;13.392;2022-08-19T11:25:30;12.60;;;11.32;;
69951;SDS011;60406;48.408;13.392;2022-08-19T11:30:31;11.00;;;10.00;;
69951;SDS011;60406;48.408;13.392;2022-08-19T11:35:32;11.80;;;10.65;;
69951;SDS011;60406;48.408;13.392;2022-08-19T11:40:33;10.23;;;9.23;;
69951;SDS011;60406;48.408;13.392;2022-08-19T11:45:34;12.98;;;10.65;;
69951;SDS011;60406;48.408;13.392;2022-08-19T11:50:35;9.13;;;8.32;;
69951;SDS011;60406;48.408;13.392;2022-08-19T11:55:37;8.90;;;8.10;;
69951;SDS011;60406;48.408;13.392;2022-08-19T12:00:39;10.13;;;9.27;;
69951;SDS011;60406;48.408;13.392;2022-08-19T12:05:40;9.32;;;8.60;;
69951;SDS011;60406;48.408;13.392;2022-08-19T12:10:42;8.35;;;7.65;;
69951;SDS011;60406;48.408;13.392;2022-08-19T12:15:44;8.60;;;7.80;;
69951;SDS011;60406;48.408;13.392;2022-08-19T12:20:46;8.30;;;7.50;;
69951;SDS011;60406;48.408;13.392;2022-08-19T12:25:47;6.40;;;5.82;;
69951;SDS011;60406;48.408;13.392;2022-08-19T12:30:49;7.55;;;6.95;;
69951;SDS011;60406;48.408;13.392;2022-08-19T12:35:50;6.82;;;6.30;;
69951;SDS011;60406;48.408;13.392;2022-08-19T12:40:51;8.10;;;6.30;;
69951;SDS011;60406;48.408;13.392;2022-08-19T12:45:52;7.67;;;6.97;;
69951;SDS011;60406;48.408;13.392;2022-08-19T12:50:53;7.40;;;6.70;;
69951;SDS011;60406;48.408;13.392;2022-08-19T12:55:55;7.60;;;6.90;;
69951;SDS011;60406;48.408;13.392;2022-08-19T13:00:56;6.97;;;6.38;;
69951;SDS011;60406;48.408;13.392;2022-08-19T13:05:57;6.72;;;6.07;;
69951;SDS011;60406;48.408;13.392;2022-08-19T13:11:06;7.20;;;6.60;;
69951;SDS011;60406;48.408;13.392;2022-08-19T13:16:11;8.13;;;6.55;;
69951;SDS011;60406;48.408;13.392;2022-08-19T13:21:12;8.05;;;7.35;;
69951;SDS011;60406;48.408;13.392;2022-08-19T13:26:13;6.63;;;6.03;;
69951;SDS011;60406;48.408;13.392;2022-08-19T13:31:16;6.32;;;5.55;;
69951;SDS011;60406;48.408;13.392;2022-08-19T13:36:21;7.82;;;5.90;;
69951;SDS011;60406;48.408;13.392;2022-08-19T13:41:22;5.63;;;5.22;;
69951;SDS011;60406;48.408;13.392;2022-08-19T13:46:22;7.47;;;4.93;;
69951;SDS011;60406;48.408;13.392;2022-08-19T13:51:23;5.97;;;5.05;;
69951;SDS011;60406;48.408;13.392;2022-08-19T13:56:24;5.53;;;5.13;;
69951;SDS011;60406;48.408;13.392;2022-08-19T14:01:25;5.88;;;5.28;;
69951;SDS011;60406;48.408;13.392;2022-08-19T14:06:26;5.75;;;4.75;;
69951;SDS011;60406;48.408;13.392;2022-08-19T14:11:27;7.82;;;5.10;;
69951;SDS011;60406;48.408;13.392;2022-08-19T14:16:28;6.18;;;4.35;;
69951;SDS011;60406;48.408;13.392;2022-08-19T14:21:29;5.00;;;4.60;;
69951;SDS011;60406;48.408;13.392;2022-08-19T14:26:30;4.35;;;3.97;;
69951;SDS011;60406;48.408;13.392;2022-08-19T14:31:31;5.68;;;4.82;;
69951;SDS011;60406;48.408;13.392;2022-08-19T14:36:32;5.35;;;4.43;;
69951;SDS011;60406;48.408;13.392;2022-08-19T14:41:33;4.20;;;3.80;;
69951;SDS011;60406;48.408;13.392;2022-08-19T14:46:34;4.88;;;4.47;;
69951;SDS011;60406;48.408;13.392;2022-08-19T14:51:34;5.75;;;5.25;;
69951;SDS011;60406;48.408;13.392;2022-08-19T15:01:36;6.05;;;5.63;;
69951;SDS011;60406;48.408;13.392;2022-08-19T15:06:37;7.73;;;7.00;;
69951;SDS011;60406;48.408;13.392;2022-08-19T15:11:38;6.63;;;6.13;;
69951;SDS011;60406;48.408;13.392;2022-08-19T15:16:38;6.95;;;6.25;;
69951;SDS011;60406;48.408;13.392;2022-08-19T15:21:39;7.22;;;6.55;;
69951;SDS011;60406;48.408;13.392;2022-08-19T15:26:40;7.40;;;6.70;;
69951;SDS011;60406;48.408;13.392;2022-08-19T15:31:41;11.35;;;7.57;;
69951;SDS011;60406;48.408;13.392;2022-08-19T15:36:42;9.05;;;8.18;;
69951;SDS011;60406;48.408;13.392;2022-08-19T15:41:45;8.43;;;7.72;;
69951;SDS011;60406;48.408;13.392;2022-08-19T15:46:46;12.50;;;8.63;;
69951;SDS011;60406;48.408;13.392;2022-08-19T15:51:48;7.97;;;7.20;;
69951;SDS011;60406;48.408;13.392;2022-08-19T15:56:49;8.30;;;7.30;;
69951;SDS011;60406;48.408;13.392;2022-08-19T16:01:50;7.80;;;7.00;;
69951;SDS011;60406;48.408;13.392;2022-08-19T16:06:53;6.50;;;5.50;;
69951;SDS011;60406;48.408;13.392;2022-08-19T16:11:57;5.70;;;5.20;;
69951;SDS011;60406;48.408;13.392;2022-08-19T16:16:59;6.82;;;5.03;;
69951;SDS011;60406;48.408;13.392;2022-08-19T16:22:00;6.10;;;5.57;;
69951;SDS011;60406;48.408;13.392;2022-08-19T16:27:02;7.90;;;6.40;;
69951;SDS011;60406;48.408;13.392;2022-08-19T16:32:07;8.95;;;7.15;;
69951;SDS011;60406;48.408;13.392;2022-08-19T16:37:09;8.60;;;6.63;;
69951;SDS011;60406;48.408;13.392;2022-08-19T16:42:10;7.40;;;6.75;;
69951;SDS011;60406;48.408;13.392;2022-08-19T16:47:12;10.60;;;7.45;;
69951;SDS011;60406;48.408;13.392;2022-08-19T16:52:13;12.05;;;8.05;;
69951;SDS011;60406;48.408;13.392;2022-08-19T16:57:14;9.48;;;7.80;;
69951;SDS011;60406;48.408;13.392;2022-08-19T17:02:18;7.85;;;7.25;;
69951;SDS011;60406;48.408;13.392;2022-08-19T17:07:20;8.63;;;7.82;;
69951;SDS011;60406;48.408;13.392;2022-08-19T17:12:24;9.45;;;8.45;;
69951;SDS011;60406;48.408;13.392;2022-08-19T17:17:25;13.57;;;6.68;;
69951;SDS011;60406;48.408;13.392;2022-08-19T17:22:26;20.85;;;5.93;;
69951;SDS011;60406;48.408;13.392;2022-08-19T17:27:28;58.30;;;6.22;;
69951;SDS011;60406;48.408;13.392;2022-08-19T17:32:29;31.95;;;9.25;;
69951;SDS011;60406;48.408;13.392;2022-08-19T17:37:30;29.85;;;18.98;;
69951;SDS011;60406;48.408;13.392;2022-08-19T17:42:31;37.47;;;25.80;;
69951;SDS011;60406;48.408;13.392;2022-08-19T17:47:32;47.75;;;34.97;;
69951;SDS011;60406;48.408;13.392;2022-08-19T17:52:34;49.15;;;32.10;;
69951;SDS011;60406;48.408;13.392;2022-08-19T17:57:36;45.90;;;32.63;;
69951;SDS011;60406;48.408;13.392;2022-08-19T18:02:44;46.35;;;31.05;;
69951;SDS011;60406;48.408;13.392;2022-08-19T18:07:45;48.03;;;31.67;;
69951;SDS011;60406;48.408;13.392;2022-08-19T18:12:46;47.53;;;30.75;;
69951;SDS011;60406;48.408;13.392;2022-08-19T18:17:47;44.33;;;29.70;;
69951;SDS011;60406;48.408;13.392;2022-08-19T18:22:48;42.83;;;29.33;;
69951;SDS011;60406;48.408;13.392;2022-08-19T18:27:49;50.92;;;32.22;;
69951;SDS011;60406;48.408;13.392;2022-08-19T18:32:51;44.90;;;31.42;;
69951;SDS011;60406;48.408;13.392;2022-08-19T18:37:53;41.00;;;27.85;;
69951;SDS011;60406;48.408;13.392;2022-08-19T18:42:54;46.95;;;29.98;;
69951;SDS011;60406;48.408;13.392;2022-08-19T18:47:55;42.13;;;28.15;;
69951;SDS011;60406;48.408;13.392;2022-08-19T18:52:56;48.45;;;33.10;;
69951;SDS011;60406;48.408;13.392;2022-08-19T18:57:56;41.00;;;31.38;;
69951;SDS011;60406;48.408;13.392;2022-08-19T19:02:57;47.60;;;33.85;;
69951;SDS011;60406;48.408;13.392;2022-08-19T19:07:58;44.85;;;32.70;;
69951;SDS011;60406;48.408;13.392;2022-08-19T19:12:59;42.83;;;32.30;;
69951;SDS011;60406;48.408;13.392;2022-08-19T19:18:00;37.10;;;28.38;;
69951;SDS011;60406;48.408;13.392;2022-08-19T19:23:01;38.85;;;29.10;;
69951;SDS011;60406;48.408;13.392;2022-08-19T19:28:02;30.75;;;25.65;;
69951;SDS011;60406;48.408;13.392;2022-08-19T19:33:03;32.38;;;27.00;;
69951;SDS011;60406;48.408;13.392;2022-08-19T19:38:04;28.30;;;22.58;;
69951;SDS011;60406;48.408;13.392;2022-08-19T19:43:05;29.33;;;21.60;;
69951;SDS011;60406;48.408;13.392;2022-08-19T19:48:06;27.10;;;19.52;;
69951;SDS011;60406;48.408;13.392;2022-08-19T19:53:07;23.77;;;18.65;;
69951;SDS011;60406;48.408;13.392;2022-08-19T19:58:08;26.48;;;19.02;;
69951;SDS011;60406;48.408;13.392;2022-08-19T20:03:09;26.05;;;18.92;;
69951;SDS011;60406;48.408;13.392;2022-08-19T20:08:10;19.92;;;17.13;;
69951;SDS011;60406;48.408;13.392;2022-08-19T20:13:11;20.73;;;17.05;;
69951;SDS011;60406;48.408;13.392;2022-08-19T20:18:12;17.55;;;15.55;;
69951;SDS011;60406;48.408;13.392;2022-08-19T20:23:13;20.35;;;15.38;;
69951;SDS011;60406;48.408;13.392;2022-08-19T20:28:14;20.38;;;15.45;;
69951;SDS011;60406;48.408;13.392;2022-08-19T20:33:15;20.40;;;15.82;;
69951;SDS011;60406;48.408;13.392;2022-08-19T20:38:16;18.83;;;16.48;;
69951;SDS011;60406;48.408;13.392;2022-08-19T20:43:17;18.00;;;16.00;;
69951;SDS011;60406;48.408;13.392;2022-08-19T20:48:18;18.20;;;15.75;;
69951;SDS011;60406;48.408;13.392;2022-08-19T20:53:19;16.77;;;13.68;;
69951;SDS011;60406;48.408;13.392;2022-08-19T20:58:21;16.92;;;14.20;;
69951;SDS011;60406;48.408;13.392;2022-08-19T21:03:23;14.70;;;12.77;;
69951;SDS011;60406;48.408;13.392;2022-08-19T21:08:26;14.03;;;12.37;;
69951;SDS011;60406;48.408;13.392;2022-08-19T21:13:27;12.98;;;11.57;;
69951;SDS011;60406;48.408;13.392;2022-08-19T21:18:28;16.48;;;13.07;;
69951;SDS011;60406;48.408;13.392;2022-08-19T21:23:29;13.75;;;12.25;;
69951;SDS011;60406;48.408;13.392;2022-08-19T21:28:30;11.63;;;10.43;;
69951;SDS011;60406;48.408;13.392;2022-08-19T21:33:31;12.63;;;9.82;;
69951;SDS011;60406;48.408;13.392;2022-08-19T21:38:32;9.38;;;8.40;;
69951;SDS011;60406;48.408;13.392;2022-08-19T21:43:33;9.38;;;7.53;;
69951;SDS011;60406;48.408;13.392;2022-08-19T21:48:35;7.30;;;6.60;;
69951;SDS011;60406;48.408;13.392;2022-08-19T21:53:36;8.48;;;5.60;;
69951;SDS011;60406;48.408;13.392;2022-08-19T21:58:37;13.73;;;6.03;;
69951;SDS011;60406;48.408;13.392;2022-08-19T22:03:38;6.80;;;5.10;;
69951;SDS011;60406;48.408;13.392;2022-08-19T22:08:38;6.20;;;5.25;;
69951;SDS011;60406;48.408;13.392;2022-08-19T22:13:39;11.18;;;5.38;;
69951;SDS011;60406;48.408;13.392;2022-08-19T22:18:40;8.85;;;5.72;;
69951;SDS011;60406;48.408;13.392;2022-08-19T22:23:41;7.80;;;7.00;;
69951;SDS011;60406;48.408;13.392;2022-08-19T22:28:42;10.50;;;7.90;;
69951;SDS011;60406;48.408;13.392;2022-08-19T22:33:43;11.00;;;8.55;;
69951;SDS011;60406;48.408;13.392;2022-08-19T22:38:44;8.65;;;7.35;;
69951;SDS011;60406;48.408;13.392;2022-08-19T22:43:45;10.57;;;8.85;;
69951;SDS011;60406;48.408;13.392;2022-08-19T22:48:46;10.25;;;8.32;;
69951;SDS011;60406;48.408;13.392;2022-08-19T22:53:47;10.27;;;7.57;;
69951;SDS011;60406;48.408;13.392;2022-08-19T22:58:48;11.57;;;7.88;;
69951;SDS011;60406;48.408;13.392;2022-08-19T23:03:49;9.20;;;6.72;;
69951;SDS011;60406;48.408;13.392;2022-08-19T23:08:50;8.00;;;7.20;;
69951;SDS011;60406;48.408;13.392;2022-08-19T23:13:50;10.38;;;8.27;;
69951;SDS011;60406;48.408;13.392;2022-08-19T23:18:51;11.32;;;8.43;;
69951;SDS011;60406;48.408;13.392;2022-08-19T23:23:52;13.05;;;8.45;;
69951;SDS011;60406;48.408;13.392;2022-08-19T23:28:53;11.68;;;9.93;;
69951;SDS011;60406;48.408;13.392;2022-08-19T23:33:54;12.20;;;10.90;;
69951;SDS011;60406;48.408;13.392;2022-08-19T23:38:55;13.77;;;10.18;;
69951;SDS011;60406;48.408;13.392;2022-08-19T23:43:56;12.75;;;10.85;;
69951;SDS011;60406;48.408;13.392;2022-08-19T23:48:57;11.15;;;9.60;;
69951;SDS011;60406;48.408;13.392;2022-08-19T23:53:58;12.50;;;11.25;;
69951;SDS011;60406;48.408;13.392;2022-08-19T23:58:59;14.88;;;13.40;;
